Time;durP1;ratioP1;P1;durP2;ratioP2;P2;SDS_P1;SDS_P2;PMS_P1;PMS_P2;Temp;Humidity;BMP_temperature;BMP_pressure;BME280_temperature;BME280_humidity;BME280_pressure;Samples;Min_cycle;Max_cycle;Signal;HPM_P1;HPM_P2
2023/03/08 07:23:50;;;;;;;14.52;11.25;;;;;;;;;;6066488;23;20026;31
2023/03/08 07:29:52;;;;;;;14.88;10.88;;;;;;;;;;4844857;29;20179;-95
2023/03/08 07:35:27;;;;;;;12.90;10.90;;;;;;;;;;4842345;29;20082;-94
2023/03/08 07:38:15;;;;;;;14.63;11.20;;;;;;;;;;4826773;29;20030;-94
2023/03/08 07:40:45;;;;;;;13.18;11.00;;;;;;;;;;4844991;29;20295;-94
2023/03/08 07:46:42;;;;;;;13.10;10.38;;;;;;;;;;5408977;23;20041;-96
2023/03/08 07:49:15;;;;;;;13.48;11.55;;;;;;;;;;4974883;28;20114;-96
2023/03/08 07:51:44;;;;;;;11.63;9.85;;;;;;;;;;4974430;28;20027;-92
2023/03/08 07:54:13;;;;;;;15.07;10.75;;;;;;;;;;4974961;28;20549;-91
2023/03/08 07:56:52;;;;;;;12.98;10.32;;;;;;;;;;4974788;28;20554;-90
2023/03/08 07:59:20;;;;;;;14.20;10.25;;;;;;;;;;4974227;28;20046;-91
2023/03/08 08:01:47;;;;;;;15.05;10.60;;;;;;;;;;4974309;28;20027;-91
2023/03/08 08:04:13;;;;;;;12.52;9.43;;;;;;;;;;4973758;28;20039;-91
2023/03/08 08:06:42;;;;;;;14.70;10.20;;;;;;;;;;4974329;28;20031;-88
2023/03/08 08:09:09;;;;;;;12.85;10.00;;;;;;;;;;4974392;28;20069;-90
2023/03/08 08:11:42;;;;;;;16.90;9.85;;;;;;;;;;4974235;28;20103;-90
2023/03/08 08:14:26;;;;;;;13.30;9.63;;;;;;;;;;4987255;28;20130;-89
2023/03/08 08:16:56;;;;;;;13.40;9.48;;;;;;;;;;4973824;28;20058;-88
2023/03/08 08:19:27;;;;;;;13.60;9.35;;;;;;;;;;4975169;28;20054;-89
2023/03/08 08:21:57;;;;;;;11.52;8.85;;;;;;;;;;4976270;28;20026;-95
2023/03/08 08:24:23;;;;;;;11.82;7.90;;;;;;;;;;4997223;28;20031;-89
2023/03/08 08:27:04;;;;;;;9.70;6.97;;;;;;;;;;4982115;28;20023;-89
2023/03/08 08:29:33;;;;;;;10.93;7.50;;;;;;;;;;4971352;28;20117;-94
2023/03/08 08:32:06;;;;;;;12.20;7.55;;;;;;;;;;4971119;28;20023;-95
2023/03/08 08:34:38;;;;;;;9.60;6.97;;;;;;;;;;4973750;28;20468;-93
2023/03/08 08:37:04;;;;;;;11.65;7.65;;;;;;;;;;4954350;29;20038;-91
2023/03/08 08:39:31;;;;;;;10.48;6.70;;;;;;;;;;4956061;29;20488;-89
2023/03/08 08:41:57;;;;;;;9.00;6.80;;;;;;;;;;4955478;29;20023;-89
2023/03/08 08:44:29;;;;;;;10.10;7.25;;;;;;;;;;4956376;28;20028;-91
2023/03/08 08:46:55;;;;;;;7.63;6.28;;;;;;;;;;4958909;29;20051;-91
2023/03/08 08:49:40;;;;;;;9.38;6.63;;;;;;;;;;4959606;28;20063;-96
2023/03/08 08:52:25;;;;;;;8.70;7.03;;;;;;;;;;4958549;29;20028;-91
2023/03/08 08:55:00;;;;;;;9.40;7.00;;;;;;;;;;4958216;29;20054;-91
2023/03/08 08:57:51;;;;;;;8.77;6.35;;;;;;;;;;4958804;29;20070;-95
2023/03/08 09:00:18;;;;;;;10.60;8.60;;;;;;;;;;4958597;29;20395;-91
2023/03/08 09:02:45;;;;;;;11.45;8.88;;;;;;;;;;4964736;29;20065;-88
2023/03/08 09:05:11;;;;;;;8.73;6.40;;;;;;;;;;4958785;29;20035;-88
2023/03/08 09:07:37;;;;;;;9.32;5.95;;;;;;;;;;4958491;29;20023;-90
2023/03/08 09:10:04;;;;;;;7.60;5.72;;;;;;;;;;4958314;29;20035;-89
2023/03/08 09:12:30;;;;;;;7.38;6.25;;;;;;;;;;4959595;29;20114;-95
2023/03/08 09:14:56;;;;;;;7.65;5.95;;;;;;;;;;4958346;29;20480;-92
2023/03/08 09:17:23;;;;;;;7.88;6.22;;;;;;;;;;4958172;29;20019;-89
2023/03/08 09:19:50;;;;;;;9.85;6.65;;;;;;;;;;4958316;29;20043;-89
2023/03/08 09:22:17;;;;;;;9.05;6.72;;;;;;;;;;4957824;29;20042;-91
2023/03/08 09:24:46;;;;;;;9.00;6.45;;;;;;;;;;4957867;29;20471;-94
2023/03/08 09:27:12;;;;;;;8.43;6.38;;;;;;;;;;4959713;29;20033;-91
2023/03/08 09:29:38;;;;;;;8.32;6.07;;;;;;;;;;4967998;29;20041;-90
2023/03/08 09:32:11;;;;;;;7.38;5.60;;;;;;;;;;4977196;29;20032;-90
2023/03/08 09:34:45;;;;;;;9.98;6.18;;;;;;;;;;4958980;29;20031;-91
2023/03/08 09:37:14;;;;;;;7.40;6.18;;;;;;;;;;4958005;29;20031;-91
2023/03/08 09:39:40;;;;;;;6.95;5.70;;;;;;;;;;4957773;29;20122;-90
2023/03/08 09:42:07;;;;;;;8.18;6.63;;;;;;;;;;4957350;29;20031;-91
2023/03/08 09:44:57;;;;;;;9.07;6.70;;;;;;;;;;4958064;29;20035;-92
2023/03/08 09:47:32;;;;;;;8.75;7.30;;;;;;;;;;4957317;29;20055;-89
2023/03/08 09:50:08;;;;;;;9.82;7.90;;;;;;;;;;4957263;29;20144;-88
2023/03/08 09:52:40;;;;;;;9.68;7.15;;;;;;;;;;4956965;29;20030;-90
2023/03/08 09:55:13;;;;;;;9.70;7.72;;;;;;;;;;4957524;28;20055;-90
2023/03/08 09:57:43;;;;;;;10.13;7.90;;;;;;;;;;4956849;29;20389;-90
2023/03/08 10:00:18;;;;;;;11.10;8.35;;;;;;;;;;4957049;29;20039;-89
2023/03/08 10:02:50;;;;;;;10.98;8.73;;;;;;;;;;4957145;29;20050;-88
2023/03/08 10:05:19;;;;;;;10.90;8.65;;;;;;;;;;4958004;29;20024;-90
2023/03/08 10:07:57;;;;;;;10.65;8.38;;;;;;;;;;4958999;29;20027;-88
2023/03/08 10:10:39;;;;;;;10.45;7.97;;;;;;;;;;4957025;29;20019;-94
2023/03/08 10:13:08;;;;;;;14.50;9.27;;;;;;;;;;4957229;29;20039;-90
2023/03/08 10:15:39;;;;;;;12.07;8.35;;;;;;;;;;4956849;29;20023;-90
2023/03/08 10:18:10;;;;;;;12.40;8.18;;;;;;;;;;4957591;29;20119;-87
2023/03/08 10:20:37;;;;;;;17.65;10.75;;;;;;;;;;4956905;29;20035;-88
2023/03/08 10:23:14;;;;;;;12.55;8.93;;;;;;;;;;4957298;29;20027;-94
2023/03/08 10:25:41;;;;;;;11.48;7.72;;;;;;;;;;4956409;29;20042;-87
2023/03/08 10:28:14;;;;;;;10.73;7.35;;;;;;;;;;4958105;29;20019;-87
2023/03/08 10:30:45;;;;;;;11.93;7.95;;;;;;;;;;4957076;29;20103;-87
2023/03/08 10:33:12;;;;;;;9.95;6.95;;;;;;;;;;4957605;29;20065;-90
2023/03/08 10:35:58;;;;;;;14.27;7.97;;;;;;;;;;4957059;29;20152;-90
2023/03/08 10:38:29;;;;;;;9.63;6.80;;;;;;;;;;4963339;29;20034;-89
2023/03/08 10:41:15;;;;;;;11.07;6.40;;;;;;;;;;4968068;29;20106;-91
2023/03/08 10:43:49;;;;;;;9.75;5.80;;;;;;;;;;4959513;29;20082;-89
2023/03/08 10:46:22;;;;;;;11.10;6.10;;;;;;;;;;4956544;29;20050;-89
2023/03/08 10:48:48;;;;;;;13.60;6.07;;;;;;;;;;4956708;29;20025;-88
2023/03/08 10:51:22;;;;;;;10.63;6.30;;;;;;;;;;4956557;29;20138;-89
2023/03/08 10:53:59;;;;;;;9.82;6.05;;;;;;;;;;4956231;29;20510;-89
2023/03/08 10:56:25;;;;;;;9.02;5.85;;;;;;;;;;4955999;29;20055;-87
2023/03/08 10:58:56;;;;;;;9.60;6.68;;;;;;;;;;4955572;29;20482;-87
2023/03/08 11:01:22;;;;;;;11.65;6.80;;;;;;;;;;4955926;29;20065;-88
2023/03/08 11:04:02;;;;;;;12.10;6.68;;;;;;;;;;4956194;29;20113;-87
2023/03/08 11:06:29;;;;;;;10.02;6.95;;;;;;;;;;4956208;28;20086;-88
2023/03/08 11:08:58;;;;;;;9.05;6.25;;;;;;;;;;4956644;29;20027;-89
2023/03/08 11:11:24;;;;;;;12.98;8.52;;;;;;;;;;4955987;29;20023;-90
2023/03/08 11:13:51;;;;;;;12.55;8.65;;;;;;;;;;4955992;29;20476;-87
2023/03/08 11:16:36;;;;;;;9.63;6.13;;;;;;;;;;4961494;29;20090;-94
2023/03/08 11:19:14;;;;;;;11.88;7.00;;;;;;;;;;4956468;29;20046;-92
2023/03/08 11:30:12;;;;;;;12.52;8.07;;;;;;;;;;4977379;23;20047;-88
2023/03/08 11:32:59;;;;;;;13.30;8.70;;;;;;;;;;4940149;29;20031;-88
2023/03/08 11:35:43;;;;;;;12.73;8.70;;;;;;;;;;4941165;29;20031;-89
2023/03/08 11:38:18;;;;;;;14.32;8.68;;;;;;;;;;4941486;29;20034;-93
2023/03/08 11:40:53;;;;;;;12.52;8.52;;;;;;;;;;4944508;29;20074;-90
2023/03/08 11:43:38;;;;;;;11.93;7.57;;;;;;;;;;4960716;29;20050;-90
2023/03/08 11:46:04;;;;;;;14.93;7.70;;;;;;;;;;4942915;29;20038;-90
2023/03/08 11:48:33;;;;;;;13.38;8.68;;;;;;;;;;4985648;23;20066;-87
2023/03/08 11:51:08;;;;;;;12.45;8.65;;;;;;;;;;4973081;28;20496;-89
2023/03/08 11:53:56;;;;;;;11.38;8.48;;;;;;;;;;4983507;23;20048;-92
2023/03/08 11:56:41;;;;;;;14.18;8.48;;;;;;;;;;4944403;29;20190;-96
2023/03/08 11:59:30;;;;;;;11.75;7.90;;;;;;;;;;4941649;29;20035;-91
2023/03/08 12:07:34;;;;;;;12.93;8.30;;;;;;;;;;5484710;23;20061;-91
2023/03/08 12:10:10;;;;;;;11.95;8.40;;;;;;;;;;4941265;29;20048;-89
2023/03/08 12:12:52;;;;;;;13.95;8.45;;;;;;;;;;4944686;29;20032;-89
2023/03/08 12:15:45;;;;;;;13.18;8.98;;;;;;;;;;4937921;29;20027;-90
2023/03/08 12:18:17;;;;;;;14.77;9.18;;;;;;;;;;4957867;28;20034;-88
2023/03/08 12:20:44;;;;;;;15.65;8.50;;;;;;;;;;4968286;28;20035;-89
2023/03/08 12:23:30;;;;;;;14.63;9.07;;;;;;;;;;4943417;29;20479;-94
2023/03/08 12:26:02;;;;;;;15.75;9.45;;;;;;;;;;4943988;29;20023;-90
2023/03/08 12:28:31;;;;;;;14.75;8.82;;;;;;;;;;4943237;29;20027;-88
2023/03/08 12:31:19;;;;;;;15.57;9.57;;;;;;;;;;4947460;29;20028;-96
2023/03/08 12:33:46;;;;;;;13.93;9.13;;;;;;;;;;5093025;23;20393;-90
2023/03/08 12:36:12;;;;;;;14.52;9.05;;;;;;;;;;4978254;28;20035;-90
2023/03/08 12:38:43;;;;;;;16.88;9.20;;;;;;;;;;4974766;28;20089;-90
2023/03/08 12:41:29;;;;;;;15.40;9.85;;;;;;;;;;4974514;28;20071;-89
2023/03/08 12:44:03;;;;;;;16.45;9.73;;;;;;;;;;4974646;28;20122;-90
2023/03/08 12:46:44;;;;;;;15.57;9.32;;;;;;;;;;4974659;28;20114;-88
2023/03/08 12:49:39;;;;;;;13.05;9.32;;;;;;;;;;4974529;28;20031;-90
2023/03/08 12:52:18;;;;;;;14.23;9.10;;;;;;;;;;4930516;29;20122;-92
2023/03/08 12:55:05;;;;;;;13.82;8.95;;;;;;;;;;4975392;28;20027;-90
2023/03/08 12:57:51;;;;;;;14.27;9.20;;;;;;;;;;4942522;29;20051;-90
2023/03/08 13:00:22;;;;;;;15.02;9.70;;;;;;;;;;4991791;28;20088;-88
2023/03/08 13:02:57;;;;;;;14.07;9.45;;;;;;;;;;4980083;28;20111;-90
2023/03/08 13:05:32;;;;;;;16.83;9.60;;;;;;;;;;4974323;28;20066;-90
2023/03/08 13:07:58;;;;;;;14.63;9.52;;;;;;;;;;4974150;28;20038;-90
2023/03/08 13:10:33;;;;;;;14.68;9.88;;;;;;;;;;4974202;28;20035;-90
2023/03/08 13:13:05;;;;;;;17.60;9.23;;;;;;;;;;4974114;28;20079;-92
2023/03/08 13:15:31;;;;;;;14.63;9.48;;;;;;;;;;4974001;28;20023;-89
2023/03/08 13:17:59;;;;;;;16.00;9.77;;;;;;;;;;4974089;28;20027;-90
2023/03/08 13:20:28;;;;;;;16.45;9.88;;;;;;;;;;4973894;28;20039;-92
2023/03/08 13:23:19;;;;;;;16.77;10.07;;;;;;;;;;4974108;28;20379;-91
2023/03/08 13:25:58;;;;;;;17.35;9.73;;;;;;;;;;4975144;28;20091;-89
2023/03/08 13:28:25;;;;;;;16.77;9.93;;;;;;;;;;4953012;28;20105;-89
2023/03/08 13:31:15;;;;;;;16.08;9.95;;;;;;;;;;4948611;29;20140;-90
2023/03/08 13:33:46;;;;;;;17.00;10.70;;;;;;;;;;4985204;28;20047;-89
2023/03/08 13:36:19;;;;;;;15.80;10.07;;;;;;;;;;4972327;28;20026;-90
2023/03/08 13:38:54;;;;;;;17.65;10.05;;;;;;;;;;4962503;28;20038;-90
2023/03/08 13:41:30;;;;;;;16.52;10.65;;;;;;;;;;4962083;28;20034;-89
2023/03/08 13:44:07;;;;;;;19.15;10.82;;;;;;;;;;4975636;28;20027;-90
2023/03/08 13:46:36;;;;;;;15.98;10.00;;;;;;;;;;4970696;28;20558;-89
2023/03/08 13:49:02;;;;;;;16.15;10.07;;;;;;;;;;4968237;28;20030;-90
2023/03/08 13:54:35;;;;;;;16.02;10.30;;;;;;;;;;4989820;28;20041;-90
2023/03/08 13:57:05;;;;;;;17.20;9.93;;;;;;;;;;4963159;28;20125;-91
2023/03/08 13:59:39;;;;;;;16.20;10.65;;;;;;;;;;4976544;28;20042;-89
2023/03/08 14:02:17;;;;;;;19.20;11.00;;;;;;;;;;4966404;28;20033;-90
2023/03/08 14:04:43;;;;;;;16.45;10.38;;;;;;;;;;4960618;28;20027;-89
2023/03/08 14:07:16;;;;;;;19.30;10.82;;;;;;;;;;4961510;28;20034;-89
2023/03/08 14:09:43;;;;;;;16.17;10.38;;;;;;;;;;4975453;28;20027;-89
2023/03/08 14:12:14;;;;;;;18.33;10.43;;;;;;;;;;4976033;28;20081;-90
2023/03/08 14:14:40;;;;;;;19.17;11.20;;;;;;;;;;4960799;28;20027;-89
2023/03/08 14:17:06;;;;;;;22.75;12.65;;;;;;;;;;4959306;28;20035;-90
2023/03/08 14:25:54;;;;;;;22.53;10.60;;;;;;;;;;4999417;28;20041;-89
2023/03/08 14:28:36;;;;;;;18.55;10.45;;;;;;;;;;4970743;28;20160;-89
2023/03/08 14:31:05;;;;;;;16.70;9.68;;;;;;;;;;4940424;29;20079;-90
2023/03/08 14:33:34;;;;;;;19.25;10.55;;;;;;;;;;4940151;29;20059;-91
2023/03/08 14:36:03;;;;;;;17.25;10.90;;;;;;;;;;4940442;29;20028;-92
2023/03/08 14:38:30;;;;;;;20.65;10.75;;;;;;;;;;4941515;29;20078;-88
2023/03/08 14:40:58;;;;;;;18.33;11.00;;;;;;;;;;4957148;28;20042;-89
2023/03/08 14:43:25;;;;;;;18.38;10.00;;;;;;;;;;4959030;28;20034;-89
2023/03/08 14:45:56;;;;;;;17.05;10.35;;;;;;;;;;4959870;28;20030;-88
2023/03/08 14:48:35;;;;;;;16.40;9.48;;;;;;;;;;4960236;28;20061;-92
2023/03/08 14:51:17;;;;;;;17.27;9.30;;;;;;;;;;4960973;28;20027;-91
2023/03/08 14:54:05;;;;;;;19.67;9.75;;;;;;;;;;5089511;23;20061;-94
2023/03/08 14:56:33;;;;;;;17.92;9.50;;;;;;;;;;4961000;28;20029;-88
2023/03/08 14:59:24;;;;;;;15.85;9.45;;;;;;;;;;4959946;28;20105;-95
2023/03/08 15:01:50;;;;;;;15.25;8.63;;;;;;;;;;4974844;28;20030;-88
2023/03/08 15:04:24;;;;;;;19.73;9.35;;;;;;;;;;4978198;28;20502;-89
2023/03/08 15:06:52;;;;;;;20.52;9.50;;;;;;;;;;4975983;28;20490;-91
2023/03/08 15:09:19;;;;;;;16.52;10.30;;;;;;;;;;4978110;28;20042;-90
2023/03/08 15:11:47;;;;;;;19.08;10.15;;;;;;;;;;4978833;28;20058;-91
2023/03/08 15:14:17;;;;;;;21.98;13.02;;;;;;;;;;4978278;28;20054;-88
2023/03/08 15:16:43;;;;;;;17.45;9.60;;;;;;;;;;4978673;28;20484;-89
2023/03/08 15:19:15;;;;;;;30.48;18.35;;;;;;;;;;4981875;28;20117;-93
2023/03/08 15:21:41;;;;;;;24.02;13.20;;;;;;;;;;4998722;28;20065;-90
2023/03/08 15:24:14;;;;;;;20.27;9.25;;;;;;;;;;4979904;28;20026;-88
2023/03/08 15:26:41;;;;;;;19.63;8.70;;;;;;;;;;4979546;28;20117;-89
2023/03/08 15:29:11;;;;;;;17.33;10.25;;;;;;;;;;4979858;28;20034;-90
2023/03/08 15:31:38;;;;;;;15.85;8.88;;;;;;;;;;4976498;28;20074;-88
2023/03/08 15:34:04;;;;;;;14.68;8.82;;;;;;;;;;4958764;28;20037;-89
2023/03/08 15:36:37;;;;;;;17.13;8.82;;;;;;;;;;4958746;28;20105;-91
2023/03/08 15:39:03;;;;;;;18.92;8.82;;;;;;;;;;4958379;28;20402;-90
2023/03/08 15:41:33;;;;;;;15.52;8.20;;;;;;;;;;4958727;28;20369;-90
2023/03/08 15:43:59;;;;;;;12.52;8.95;;;;;;;;;;4958374;28;20130;-89
2023/03/08 15:46:25;;;;;;;16.60;9.85;;;;;;;;;;4958412;28;20031;-89
2023/03/08 15:48:51;;;;;;;13.60;8.23;;;;;;;;;;4975810;28;20027;-87
2023/03/08 15:51:18;;;;;;;16.98;10.55;;;;;;;;;;4969044;28;20041;-90
2023/03/08 15:53:45;;;;;;;22.58;12.25;;;;;;;;;;4957320;28;20079;-87
2023/03/08 15:56:17;;;;;;;18.17;9.40;;;;;;;;;;4957830;29;20102;-95
2023/03/08 15:58:58;;;;;;;16.88;11.95;;;;;;;;;;4956717;29;20062;-96
2023/03/08 16:01:27;;;;;;;15.90;10.30;;;;;;;;;;4963897;28;20039;-95
2023/03/08 16:04:12;;;;;;;16.98;8.95;;;;;;;;;;4957108;28;20035;-89
2023/03/08 16:06:42;;;;;;;14.70;8.80;;;;;;;;;;4961857;29;20027;-91
2023/03/08 16:09:08;;;;;;;15.10;8.10;;;;;;;;;;4954695;29;20063;-88
2023/03/08 16:11:41;;;;;;;14.55;8.45;;;;;;;;;;4954946;29;20125;-93
2023/03/08 16:14:07;;;;;;;13.10;8.20;;;;;;;;;;4954920;29;20023;-89
2023/03/08 16:16:33;;;;;;;14.55;8.38;;;;;;;;;;4955194;29;20043;-88
2023/03/08 16:18:59;;;;;;;14.75;8.27;;;;;;;;;;4964364;28;20034;-89
2023/03/08 16:21:25;;;;;;;15.93;9.43;;;;;;;;;;4974363;28;20506;-90
2023/03/08 16:23:52;;;;;;;14.13;8.45;;;;;;;;;;4975465;28;20023;-90
2023/03/08 16:26:18;;;;;;;16.38;8.68;;;;;;;;;;4974413;28;20027;-90
2023/03/08 16:28:45;;;;;;;15.13;8.75;;;;;;;;;;4978047;28;20412;-87
2023/03/08 16:31:11;;;;;;;15.18;8.55;;;;;;;;;;4992988;28;20022;-89
2023/03/08 16:33:38;;;;;;;15.23;9.43;;;;;;;;;;4979268;28;20035;-89
2023/03/08 16:36:05;;;;;;;16.70;9.23;;;;;;;;;;4973974;28;20034;-88
2023/03/08 16:38:31;;;;;;;20.20;10.13;;;;;;;;;;4973947;28;20122;-90
2023/03/08 16:41:02;;;;;;;17.52;10.18;;;;;;;;;;4974081;28;20045;-88
2023/03/08 16:43:28;;;;;;;14.32;9.88;;;;;;;;;;4973975;28;20062;-89
2023/03/08 16:45:58;;;;;;;15.40;9.60;;;;;;;;;;4974083;28;20053;-87
2023/03/08 16:48:26;;;;;;;22.17;14.77;;;;;;;;;;4974177;28;20130;-89
2023/03/08 16:50:57;;;;;;;17.73;11.52;;;;;;;;;;4974130;28;20034;-88
2023/03/08 16:53:24;;;;;;;17.52;10.43;;;;;;;;;;4966366;28;20051;-89
2023/03/08 16:55:53;;;;;;;18.85;11.32;;;;;;;;;;4938957;29;20091;-88
2023/03/08 16:58:20;;;;;;;19.08;10.93;;;;;;;;;;4954467;29;20035;-90
2023/03/08 17:00:46;;;;;;;15.35;9.60;;;;;;;;;;4954561;29;20504;-88
2023/03/08 17:03:13;;;;;;;15.90;10.00;;;;;;;;;;4955870;28;20023;-90
2023/03/08 17:05:40;;;;;;;19.95;11.77;;;;;;;;;;4956136;28;20079;-90
2023/03/08 17:08:07;;;;;;;19.45;10.57;;;;;;;;;;4958800;29;20535;-90
2023/03/08 17:10:40;;;;;;;17.85;10.13;;;;;;;;;;4958167;29;20066;-90
2023/03/08 17:13:06;;;;;;;17.88;11.63;;;;;;;;;;4958185;29;20031;-89
2023/03/08 17:15:38;;;;;;;16.80;11.35;;;;;;;;;;4958001;29;20035;-90
2023/03/08 17:18:04;;;;;;;20.13;11.63;;;;;;;;;;4957872;29;20027;-89
2023/03/08 17:20:30;;;;;;;20.13;12.27;;;;;;;;;;4957803;29;20158;-90
2023/03/08 17:22:56;;;;;;;19.25;12.05;;;;;;;;;;4957895;29;20054;-88
2023/03/08 17:25:22;;;;;;;24.65;12.95;;;;;;;;;;4957844;29;20063;-89
2023/03/08 17:27:50;;;;;;;28.05;14.50;;;;;;;;;;4957723;29;20028;-90
2023/03/08 17:30:33;;;;;;;29.42;14.40;;;;;;;;;;4959509;29;20117;-93
2023/03/08 17:36:03;;;;;;;24.98;13.80;;;;;;;;;;4943846;29;20163;-89
2023/03/08 17:38:36;;;;;;;30.38;14.73;;;;;;;;;;4923985;29;20032;-91
2023/03/08 17:41:09;;;;;;;27.42;14.25;;;;;;;;;;4925884;29;20116;-95
2023/03/08 17:43:35;;;;;;;27.75;15.30;;;;;;;;;;4939943;29;20024;-92
2023/03/08 17:46:18;;;;;;;27.55;17.58;;;;;;;;;;4928703;29;20028;-95
2023/03/08 17:48:49;;;;;;;46.78;26.63;;;;;;;;;;4926274;29;20047;-91
2023/03/08 17:54:36;;;;;;;48.42;24.30;;;;;;;;;;4894319;29;20056;-93
2023/03/08 17:57:02;;;;;;;41.25;25.35;;;;;;;;;;4887295;29;20051;-91
2023/03/08 17:59:31;;;;;;;44.78;26.73;;;;;;;;;;4887186;29;20044;-91
2023/03/08 18:02:00;;;;;;;41.38;26.10;;;;;;;;;;4902761;29;20060;-88
2023/03/08 18:04:35;;;;;;;47.38;28.98;;;;;;;;;;4914357;29;20043;-90
2023/03/08 18:07:01;;;;;;;45.67;26.05;;;;;;;;;;4922134;29;20568;-87
2023/03/08 18:19:07;;;;;;;36.67;23.25;;;;;;;;;;4865416;29;20029;-92
2023/03/08 18:24:54;;;;;;;38.20;22.65;;;;;;;;;;4882614;29;20066;-93
2023/03/08 18:43:05;;;;;;;;;;;;;;;;;;;;;
2023/03/08 18:49:09;;;;;;;32.63;20.48;;;;;;;;;;4792435;30;20036;-95
2023/03/08 18:52:04;;;;;;;;;;;;;;;;;;;;;
2023/03/08 18:54:53;;;;;;;77.28;44.78;;;;;;;;;;4760148;30;20534;-90
2023/03/08 18:57:20;;;;;;;109.72;55.45;;;;;;;;;;4840924;29;20059;-90
2023/03/08 18:59:53;;;;;;;57.97;33.55;;;;;;;;;;4827590;29;20045;-91
2023/03/08 19:05:22;;;;;;;40.03;23.05;;;;;;;;;;4842786;29;20057;-90
2023/03/08 19:07:52;;;;;;;40.92;23.02;;;;;;;;;;4827167;29;20222;-91
2023/03/08 19:10:25;;;;;;;40.45;25.50;;;;;;;;;;4827280;29;20090;-89
2023/03/08 19:13:00;;;;;;;40.92;24.15;;;;;;;;;;4833766;29;20049;-89
2023/03/08 19:15:35;;;;;;;42.05;24.98;;;;;;;;;;4952495;29;20027;-88
2023/03/08 19:18:04;;;;;;;43.60;24.27;;;;;;;;;;4941233;29;20078;-91
2023/03/08 19:20:30;;;;;;;32.20;19.33;;;;;;;;;;4940142;29;20035;-88
2023/03/08 19:23:02;;;;;;;28.13;18.27;;;;;;;;;;4939839;29;20055;-89
2023/03/08 19:25:32;;;;;;;26.65;17.50;;;;;;;;;;4939220;29;20173;-91
2023/03/08 19:28:00;;;;;;;33.45;20.67;;;;;;;;;;4938455;29;20030;-90
2023/03/08 19:30:27;;;;;;;36.42;21.40;;;;;;;;;;4939496;29;20039;-91
2023/03/08 19:33:14;;;;;;;41.63;22.15;;;;;;;;;;4940213;29;20028;-93
2023/03/08 19:36:02;;;;;;;37.20;22.27;;;;;;;;;;4939412;29;20122;-90
2023/03/08 19:38:34;;;;;;;31.40;18.85;;;;;;;;;;4924956;29;20151;-89
2023/03/08 19:41:10;;;;;;;24.40;14.38;;;;;;;;;;4939033;29;20412;-92
2023/03/08 19:43:57;;;;;;;29.25;16.58;;;;;;;;;;4938875;29;20154;-93
2023/03/08 19:46:26;;;;;;;29.55;18.08;;;;;;;;;;4939507;29;20126;-90
2023/03/08 19:49:14;;;;;;;32.58;20.38;;;;;;;;;;4938922;29;20027;-91
2023/03/08 19:51:57;;;;;;;38.78;23.17;;;;;;;;;;4939620;29;20027;-90
2023/03/08 19:54:29;;;;;;;39.53;24.17;;;;;;;;;;4939277;29;20042;-89
2023/03/08 19:57:09;;;;;;;;;;;;;;;;;;;;;
2023/03/08 19:59:41;;;;;;;38.65;22.10;;;;;;;;;;4956543;29;20035;-89
2023/03/08 20:07:42;;;;;;;43.33;24.20;;;;;;;;;;4956942;29;20161;-89
2023/03/08 20:13:09;;;;;;;42.28;23.98;;;;;;;;;;5233389;23;20098;-91
2023/03/08 20:15:51;;;;;;;51.67;29.30;;;;;;;;;;4920261;29;20039;-88
2023/03/08 20:18:24;;;;;;;37.95;23.08;;;;;;;;;;4920598;29;20186;-92
2023/03/08 20:23:54;;;;;;;41.92;25.15;;;;;;;;;;4916374;29;20076;-89
2023/03/08 20:26:35;;;;;;;37.55;23.20;;;;;;;;;;4902691;29;20489;-90
2023/03/08 20:29:02;;;;;;;44.50;24.88;;;;;;;;;;4921295;29;20028;-90
2023/03/08 20:31:31;;;;;;;39.85;24.58;;;;;;;;;;4909968;29;20033;-90
2023/03/08 20:33:57;;;;;;;47.33;27.25;;;;;;;;;;4903110;29;20032;-91
2023/03/08 20:36:32;;;;;;;45.08;27.17;;;;;;;;;;4900353;29;20087;-94
2023/03/08 20:39:02;;;;;;;36.10;22.88;;;;;;;;;;4897128;29;20129;-90
2023/03/08 20:41:38;;;;;;;39.47;23.25;;;;;;;;;;4903794;29;20084;-92
2023/03/08 20:44:04;;;;;;;39.92;23.80;;;;;;;;;;4903942;29;20032;-90
2023/03/08 20:46:36;;;;;;;36.38;22.02;;;;;;;;;;4904000;29;20040;-91
2023/03/08 20:49:11;;;;;;;45.28;25.83;;;;;;;;;;4903584;29;20068;-91
2023/03/08 20:51:43;;;;;;;43.15;26.02;;;;;;;;;;4923217;29;20090;-91
2023/03/08 20:54:11;;;;;;;44.72;25.27;;;;;;;;;;4923073;29;20038;-93
2023/03/08 20:56:49;;;;;;;45.15;25.23;;;;;;;;;;4923031;29;20031;-94
2023/03/08 20:59:22;;;;;;;46.05;26.48;;;;;;;;;;4922759;29;20384;-93
2023/03/08 21:01:51;;;;;;;44.80;25.83;;;;;;;;;;4922787;29;20039;-92
2023/03/08 21:04:19;;;;;;;38.65;24.85;;;;;;;;;;4931963;29;20036;-91
2023/03/08 21:06:45;;;;;;;38.33;24.63;;;;;;;;;;4935243;29;20032;-92
2023/03/08 21:09:12;;;;;;;36.45;22.13;;;;;;;;;;4923003;29;20078;-92
2023/03/08 21:11:46;;;;;;;37.53;23.60;;;;;;;;;;4922954;29;20110;-91
2023/03/08 21:14:12;;;;;;;40.38;24.27;;;;;;;;;;4931556;29;20043;-92
2023/03/08 21:17:04;;;;;;;41.92;25.83;;;;;;;;;;4941703;29;20046;-92
2023/03/08 21:19:54;;;;;;;38.60;25.55;;;;;;;;;;4918701;29;20056;-89
2023/03/08 21:22:20;;;;;;;35.60;23.40;;;;;;;;;;4903172;29;20124;-90
2023/03/08 21:24:46;;;;;;;44.75;24.98;;;;;;;;;;4903298;29;20064;-92
2023/03/08 21:27:28;;;;;;;39.08;24.13;;;;;;;;;;4902646;29;20024;-89
2023/03/08 21:29:55;;;;;;;40.13;24.10;;;;;;;;;;4902999;29;20166;-92
2023/03/08 21:32:21;;;;;;;36.85;22.95;;;;;;;;;;4903120;29;20036;-90
2023/03/08 21:34:56;;;;;;;36.08;21.75;;;;;;;;;;4903101;29;20043;-91
2023/03/08 21:37:25;;;;;;;35.70;22.83;;;;;;;;;;4903112;29;20025;-89
2023/03/08 21:39:51;;;;;;;41.95;23.92;;;;;;;;;;4903735;29;20119;-92
2023/03/08 21:42:20;;;;;;;39.25;24.48;;;;;;;;;;4922260;29;20024;-90
2023/03/08 21:44:49;;;;;;;36.80;23.00;;;;;;;;;;4904447;29;20044;-91
2023/03/08 21:47:24;;;;;;;34.75;21.60;;;;;;;;;;4902689;29;20033;-89
2023/03/08 21:49:59;;;;;;;39.50;22.55;;;;;;;;;;4911745;29;20040;-92
2023/03/08 22:13:11;;;;;;;31.35;18.52;;;;;;;;;;4990818;28;20097;-91
2023/03/08 22:15:44;;;;;;;21.50;14.13;;;;;;;;;;4976750;28;20027;-92
2023/03/08 22:18:28;;;;;;;19.45;12.38;;;;;;;;;;4976388;28;20069;-95
2023/03/08 22:20:57;;;;;;;22.50;12.75;;;;;;;;;;4976325;28;20039;-92
2023/03/08 22:23:26;;;;;;;18.00;11.73;;;;;;;;;;4976001;28;20027;-91
2023/03/08 22:25:58;;;;;;;12.73;6.55;;;;;;;;;;4976066;28;20369;-92
2023/03/08 22:34:35;;;;;;;9.43;4.40;;;;;;;;;;4977009;28;20034;-92
2023/03/08 22:37:10;;;;;;;8.30;4.00;;;;;;;;;;4975554;28;20283;-92
2023/03/08 22:39:40;;;;;;;6.05;3.88;;;;;;;;;;4975796;28;20030;-92
2023/03/08 22:45:15;;;;;;;8.10;3.80;;;;;;;;;;4975245;28;20069;-92
2023/03/08 22:47:53;;;;;;;7.88;3.63;;;;;;;;;;4975309;28;20378;-91
2023/03/08 22:50:22;;;;;;;8.23;3.70;;;;;;;;;;4970105;28;20062;-92
2023/03/08 22:52:51;;;;;;;8.18;4.22;;;;;;;;;;4987571;28;20581;-92
2023/03/08 22:55:22;;;;;;;7.00;3.35;;;;;;;;;;4990861;28;20491;-93
2023/03/08 22:57:51;;;;;;;6.25;3.67;;;;;;;;;;4976737;28;20039;-92
2023/03/08 23:00:21;;;;;;;6.28;3.50;;;;;;;;;;4974500;28;20526;-93
2023/03/08 23:02:58;;;;;;;6.75;3.72;;;;;;;;;;4974184;28;20062;-92
2023/03/08 23:05:30;;;;;;;8.45;3.90;;;;;;;;;;4968999;28;20034;-90
2023/03/08 23:11:06;;;;;;;7.10;3.17;;;;;;;;;;4961415;28;20074;-93
2023/03/08 23:13:46;;;;;;;6.70;3.83;;;;;;;;;;4976661;28;20050;-92
2023/03/08 23:16:21;;;;;;;6.97;3.60;;;;;;;;;;4991942;28;20030;-92
2023/03/08 23:18:51;;;;;;;6.78;3.63;;;;;;;;;;4980387;28;20118;-91
2023/03/08 23:22:07;;;;;;;6.70;3.75;;;;;;;;;;4974763;28;20046;-91
2023/03/08 23:24:17;;;;;;;7.57;3.47;;;;;;;;;;4967974;28;20022;-90
2023/03/08 23:26:46;;;;;;;6.90;3.42;;;;;;;;;;4974676;28;20034;-92
2023/03/08 23:29:16;;;;;;;7.18;3.42;;;;;;;;;;4974990;28;20030;-92
2023/03/08 23:31:45;;;;;;;8.52;3.95;;;;;;;;;;4974774;28;20034;-91
2023/03/08 23:34:15;;;;;;;9.32;5.00;;;;;;;;;;4969705;28;20038;-90
2023/03/08 23:36:44;;;;;;;9.73;6.03;;;;;;;;;;4974585;28;20041;-91
2023/03/08 23:39:16;;;;;;;11.18;6.25;;;;;;;;;;4974659;28;20082;-92
2023/03/08 23:41:46;;;;;;;10.95;6.00;;;;;;;;;;4975033;28;20035;-91
2023/03/08 23:44:18;;;;;;;10.80;5.15;;;;;;;;;;4974499;28;20022;-92
2023/03/08 23:47:00;;;;;;;10.15;6.47;;;;;;;;;;4974837;28;20085;-92
2023/03/08 23:52:21;;;;;;;11.77;5.75;;;;;;;;;;4976264;28;20089;-92
2023/03/08 23:54:51;;;;;;;11.38;5.90;;;;;;;;;;4974549;28;20057;-92
2023/03/08 23:57:20;;;;;;;11.02;6.50;;;;;;;;;;4974593;28;20026;-91
2023/03/08 23:59:49;;;;;;;10.38;6.20;;;;;;;;;;4974755;28;20086;-92
